createdAt,value
2017-12-19T00:00:02.964Z,127.20
2017-12-19T00:01:02.966Z,121.10
2017-12-19T00:02:02.972Z,142.70
2017-12-19T00:03:02.971Z,133.40
2017-12-19T00:04:02.996Z,129.80
2017-12-19T00:05:02.988Z,136.00
2017-12-19T00:06:02.986Z,124.90
2017-12-19T00:07:02.994Z,135.70
2017-12-19T00:08:02.993Z,140.20
2017-12-19T00:09:03.007Z,146.90
2017-12-19T00:10:03.010Z,136.50
2017-12-19T00:11:03.013Z,142.20
2017-12-19T00:12:03.026Z,144.70
2017-12-19T00:13:03.027Z,142.90
2017-12-19T00:14:03.030Z,146.40
2017-12-19T00:15:03.046Z,143.10
2017-12-19T00:16:03.077Z,132.60
2017-12-19T00:17:03.049Z,133.30
2017-12-19T00:18:03.054Z,125.80
2017-12-19T00:19:03.065Z,120.40
2017-12-19T00:20:03.067Z,126.40
2017-12-19T00:21:03.064Z,137.70
2017-12-19T00:22:03.089Z,131.90
2017-12-19T00:23:03.078Z,128.00
2017-12-19T00:24:03.102Z,126.30
2017-12-19T00:25:03.092Z,128.20
2017-12-19T00:26:03.098Z,129.10
2017-12-19T00:27:03.112Z,121.40
2017-12-19T00:28:03.112Z,125.70
2017-12-19T00:29:03.121Z,120.60
2017-12-19T00:30:03.125Z,117.30
2017-12-19T00:31:03.126Z,128.30
2017-12-19T00:32:03.153Z,128.80
2017-12-19T00:33:03.141Z,128.90
2017-12-19T00:34:03.148Z,122.90
2017-12-19T00:35:03.160Z,116.30
2017-12-19T00:36:03.163Z,112.30
2017-12-19T00:37:03.167Z,119.50
2017-12-19T00:38:03.177Z,118.50
2017-12-19T00:39:03.202Z,117.90
2017-12-19T00:40:03.188Z,118.90
2017-12-19T00:41:03.188Z,107.30
2017-12-19T00:42:03.232Z,110.30
2017-12-19T00:43:03.212Z,113.90
2017-12-19T00:44:03.198Z,105.10
2017-12-19T00:45:03.217Z,106.80
2017-12-19T00:46:03.217Z,108.00
2017-12-19T00:47:03.223Z,111.40
2017-12-19T00:48:03.234Z,98.90
2017-12-19T00:49:03.235Z,111.00
2017-12-19T00:50:03.245Z,112.70
2017-12-19T00:51:03.245Z,109.10
2017-12-19T00:52:03.253Z,109.40
2017-12-19T00:53:03.256Z,104.10
2017-12-19T00:54:03.275Z,105.30
2017-12-19T00:55:03.312Z,111.50
2017-12-19T00:56:03.275Z,108.10
2017-12-19T00:57:03.280Z,117.10
2017-12-19T00:58:03.284Z,119.10
2017-12-19T00:59:03.298Z,124.50
2017-12-19T01:00:03.292Z,127.20
2017-12-19T01:01:03.302Z,115.10
2017-12-19T01:02:03.313Z,117.10
2017-12-19T01:03:03.314Z,119.90
2017-12-19T01:04:03.329Z,129.50
2017-12-19T01:05:03.318Z,129.00
2017-12-19T01:06:03.441Z,115.50
2017-12-19T01:07:03.340Z,111.20
2017-12-19T01:08:03.419Z,113.50
2017-12-19T01:10:03.451Z,121.10
2017-12-19T01:11:03.442Z,115.70
2017-12-19T01:12:03.382Z,108.40
2017-12-19T01:13:03.396Z,105.80
2017-12-19T01:14:03.379Z,111.10
2017-12-19T01:15:03.379Z,104.10
2017-12-19T01:16:03.475Z,109.80
2017-12-19T01:17:03.388Z,112.60
2017-12-19T01:18:03.451Z,112.60
2017-12-19T01:19:03.400Z,110.30
2017-12-19T01:20:03.406Z,115.60
2017-12-19T01:21:03.415Z,108.00
2017-12-19T01:22:03.419Z,110.10
2017-12-19T01:23:04.119Z,109.60
2017-12-19T01:24:03.438Z,103.20
2017-12-19T01:25:03.432Z,102.20
2017-12-19T01:26:03.446Z,102.00
2017-12-19T01:28:03.459Z,104.10
2017-12-19T01:29:03.454Z,96.50
2017-12-19T01:30:03.459Z,98.40
2017-12-19T01:31:03.475Z,102.10
2017-12-19T01:32:03.478Z,98.90
2017-12-19T01:33:03.474Z,97.80
2017-12-19T01:34:03.492Z,101.30
2017-12-19T01:35:03.491Z,97.70
2017-12-19T01:36:03.497Z,102.90
2017-12-19T01:37:03.504Z,101.20
2017-12-19T01:38:03.506Z,92.50
2017-12-19T01:39:03.519Z,100.00
2017-12-19T01:40:03.522Z,98.90
2017-12-19T01:41:03.518Z,92.90
2017-12-19T01:42:03.534Z,95.00
2017-12-19T01:43:03.540Z,98.60
2017-12-19T01:44:03.545Z,88.30
2017-12-19T01:45:03.548Z,93.00
2017-12-19T01:47:03.561Z,85.30
2017-12-19T01:48:03.559Z,94.90
2017-12-19T01:49:03.573Z,95.30
2017-12-19T01:50:03.576Z,94.60
2017-12-19T01:51:03.578Z,88.80
2017-12-19T01:52:03.587Z,93.90
2017-12-19T01:53:03.592Z,86.80
2017-12-19T01:54:03.613Z,92.50
2017-12-19T01:55:03.606Z,83.90
2017-12-19T01:56:03.598Z,86.10
2017-12-19T01:57:03.618Z,93.00
2017-12-19T01:58:03.620Z,87.20
2017-12-19T01:59:03.626Z,87.80
2017-12-19T02:00:03.634Z,90.60
2017-12-19T02:01:03.635Z,95.70
2017-12-19T02:02:03.653Z,106.30
2017-12-19T02:03:03.653Z,96.40
2017-12-19T02:04:03.653Z,101.20
2017-12-19T02:05:03.663Z,98.20
2017-12-19T02:06:03.671Z,94.90
2017-12-19T02:07:03.674Z,88.70
2017-12-19T02:08:03.691Z,102.70
2017-12-19T02:09:03.688Z,97.30
2017-12-19T02:10:03.691Z,95.50
2017-12-19T02:11:03.696Z,87.60
2017-12-19T02:12:03.703Z,98.10
2017-12-19T02:13:03.710Z,95.60
2017-12-19T02:14:04.620Z,97.20
2017-12-19T02:15:03.720Z,95.90
2017-12-19T02:16:03.723Z,97.20
2017-12-19T02:17:03.729Z,97.60
2017-12-19T02:18:03.738Z,100.60
2017-12-19T02:19:03.735Z,105.30
2017-12-19T02:20:03.742Z,104.70
2017-12-19T02:21:03.749Z,99.30
2017-12-19T02:22:03.753Z,105.00
2017-12-19T02:23:03.766Z,97.70
2017-12-19T02:24:03.759Z,99.80
2017-12-19T02:25:03.774Z,104.90
2017-12-19T02:26:03.782Z,101.20
2017-12-19T02:27:03.786Z,106.80
2017-12-19T02:28:03.783Z,112.60
2017-12-19T02:29:03.791Z,111.70
2017-12-19T02:30:03.808Z,100.40
2017-12-19T02:31:03.818Z,107.40
2017-12-19T02:32:03.818Z,106.30
2017-12-19T02:33:03.939Z,104.40
2017-12-19T02:34:03.825Z,104.20
2017-12-19T02:35:03.834Z,107.00
2017-12-19T02:36:03.841Z,107.20
2017-12-19T02:37:03.890Z,108.40
2017-12-19T02:38:03.850Z,103.00
2017-12-19T02:39:03.856Z,106.00
2017-12-19T02:40:03.860Z,107.10
2017-12-19T02:41:03.866Z,110.30
2017-12-19T02:42:03.881Z,106.70
2017-12-19T02:43:03.877Z,104.70
2017-12-19T02:44:03.883Z,101.10
2017-12-19T02:45:03.892Z,112.90
2017-12-19T02:46:03.893Z,107.50
2017-12-19T02:47:03.892Z,105.00
2017-12-19T02:48:03.922Z,100.30
2017-12-19T02:49:03.906Z,104.00
2017-12-19T02:50:03.908Z,117.40
2017-12-19T02:51:03.920Z,111.00
2017-12-19T02:52:03.920Z,109.60
2017-12-19T02:53:03.935Z,108.80
2017-12-19T02:54:03.938Z,113.90
2017-12-19T02:55:04.004Z,114.20
2017-12-19T02:56:03.951Z,111.70
2017-12-19T02:57:03.958Z,117.60
2017-12-19T02:58:03.967Z,107.30
2017-12-19T02:59:03.968Z,113.70
2017-12-19T03:00:03.976Z,107.70
2017-12-19T03:01:03.979Z,110.50
2017-12-19T03:02:03.985Z,115.40
2017-12-19T03:03:03.988Z,107.20
2017-12-19T03:04:04.001Z,112.00
2017-12-19T03:05:03.999Z,112.20
2017-12-19T03:06:04.004Z,112.60
2017-12-19T03:07:04.059Z,122.30
2017-12-19T03:08:04.023Z,114.60
2017-12-19T03:09:04.019Z,114.00
2017-12-19T03:10:04.034Z,106.50
2017-12-19T03:11:04.033Z,109.50
2017-12-19T03:12:04.037Z,111.00
2017-12-19T03:13:04.041Z,118.50
2017-12-19T03:14:04.049Z,114.00
2017-12-19T03:15:04.057Z,115.00
2017-12-19T03:16:04.222Z,119.60
2017-12-19T03:17:04.236Z,113.80
2017-12-19T03:18:04.076Z,126.80
2017-12-19T03:19:04.072Z,115.00
2017-12-19T03:20:04.091Z,121.60
2017-12-19T03:21:04.148Z,125.50
2017-12-19T03:22:04.094Z,123.50
2017-12-19T03:23:04.109Z,131.00
2017-12-19T03:24:04.103Z,116.10
2017-12-19T03:25:04.107Z,113.50
2017-12-19T03:26:04.112Z,116.70
2017-12-19T03:27:04.116Z,132.00
2017-12-19T03:28:04.200Z,123.70
2017-12-19T03:29:04.131Z,130.50
2017-12-19T03:30:04.138Z,122.50
2017-12-19T03:31:04.139Z,121.70
2017-12-19T03:32:04.148Z,121.70
2017-12-19T03:33:04.151Z,116.40
2017-12-19T03:34:04.159Z,128.70
2017-12-19T03:35:04.163Z,127.20
2017-12-19T03:36:04.170Z,129.90
2017-12-19T03:37:04.167Z,129.10
2017-12-19T03:38:04.181Z,128.30
2017-12-19T03:39:04.187Z,127.80
2017-12-19T03:40:04.194Z,129.50
2017-12-19T03:41:04.199Z,134.60
2017-12-19T03:42:04.202Z,120.80
2017-12-19T03:43:04.218Z,124.10
2017-12-19T03:44:04.393Z,115.60
2017-12-19T03:45:04.218Z,120.10
2017-12-19T03:46:04.252Z,125.90
2017-12-19T03:47:04.228Z,117.60
2017-12-19T03:48:04.232Z,126.80
2017-12-19T03:49:04.240Z,129.50
2017-12-19T03:50:04.250Z,122.90
2017-12-19T03:51:04.247Z,121.50
2017-12-19T03:52:04.258Z,122.40
2017-12-19T03:53:04.268Z,118.30
2017-12-19T03:54:04.267Z,124.20
2017-12-19T03:55:04.274Z,135.10
2017-12-19T03:56:04.272Z,124.20
2017-12-19T03:57:04.295Z,134.10
2017-12-19T03:58:04.336Z,133.50
2017-12-19T03:59:04.295Z,116.90
2017-12-19T04:00:04.301Z,126.80
2017-12-19T04:01:04.293Z,129.80
2017-12-19T04:02:04.308Z,125.10
2017-12-19T04:03:04.314Z,131.10
2017-12-19T04:04:04.321Z,133.60
2017-12-19T04:05:04.330Z,126.80
2017-12-19T04:06:04.334Z,130.60
2017-12-19T04:07:04.345Z,141.10
2017-12-19T04:08:04.340Z,129.50
2017-12-19T04:09:04.346Z,125.10
2017-12-19T04:10:04.360Z,123.10
2017-12-19T04:11:04.370Z,128.80
2017-12-19T04:12:04.365Z,138.80
2017-12-19T04:13:04.369Z,138.60
2017-12-19T04:14:04.374Z,141.10
2017-12-19T04:15:04.376Z,128.40
2017-12-19T04:16:04.382Z,137.90
2017-12-19T04:17:04.389Z,134.80
2017-12-19T04:18:04.397Z,125.70
2017-12-19T04:19:04.405Z,129.30
2017-12-19T04:20:04.407Z,128.50
2017-12-19T04:21:04.546Z,124.20
2017-12-19T04:22:04.448Z,132.40
2017-12-19T04:23:04.421Z,130.60
2017-12-19T04:24:04.432Z,130.50
2017-12-19T04:25:04.434Z,143.40
2017-12-19T04:26:04.436Z,131.90
2017-12-19T04:27:04.444Z,130.20
2017-12-19T04:28:04.450Z,137.70
2017-12-19T04:29:04.450Z,143.70
2017-12-19T04:30:04.462Z,137.30
2017-12-19T04:31:04.461Z,134.50
2017-12-19T04:32:04.467Z,140.00
2017-12-19T04:33:04.466Z,138.20
2017-12-19T04:34:04.487Z,142.70
2017-12-19T04:35:04.490Z,140.80
2017-12-19T04:36:04.486Z,131.30
2017-12-19T04:37:04.584Z,134.10
2017-12-19T04:38:04.511Z,143.60
2017-12-19T04:39:04.555Z,144.30
2017-12-19T04:40:04.508Z,142.60
2017-12-19T04:41:04.515Z,134.60
2017-12-19T04:42:04.526Z,133.90
2017-12-19T04:43:04.526Z,131.80
2017-12-19T04:44:04.533Z,127.10
2017-12-19T04:45:04.539Z,144.70
2017-12-19T04:46:04.543Z,133.50
2017-12-19T04:47:04.547Z,137.10
2017-12-19T04:48:04.558Z,139.90
2017-12-19T04:49:04.558Z,134.60
2017-12-19T04:50:04.564Z,134.50
2017-12-19T04:51:04.569Z,134.70
2017-12-19T04:52:04.578Z,130.00
2017-12-19T04:53:04.586Z,130.70
2017-12-19T04:54:04.584Z,137.90
2017-12-19T04:55:04.591Z,140.60
2017-12-19T04:56:04.597Z,140.30
2017-12-19T04:57:04.604Z,136.10
2017-12-19T04:58:04.607Z,142.80
2017-12-19T04:59:04.617Z,146.00
2017-12-19T05:00:04.618Z,154.70
2017-12-19T05:01:04.629Z,132.70
2017-12-19T05:02:04.635Z,144.00
2017-12-19T05:03:04.635Z,140.30
2017-12-19T05:04:04.740Z,144.90
2017-12-19T05:05:04.648Z,125.10
2017-12-19T05:06:04.648Z,127.70
2017-12-19T05:07:04.653Z,121.50
2017-12-19T05:08:04.663Z,138.60
2017-12-19T05:09:04.674Z,141.30
2017-12-19T05:10:04.668Z,136.30
2017-12-19T05:11:04.679Z,135.80
2017-12-19T05:12:04.680Z,140.10
2017-12-19T05:13:04.702Z,134.40
2017-12-19T05:14:04.797Z,137.70
2017-12-19T05:15:04.709Z,139.70
2017-12-19T05:16:04.709Z,139.50
2017-12-19T05:17:04.709Z,145.60
2017-12-19T05:18:05.427Z,146.30
2017-12-19T05:19:04.721Z,158.10
2017-12-19T05:20:04.725Z,148.70
2017-12-19T05:21:04.731Z,161.40
2017-12-19T05:22:04.735Z,163.60
2017-12-19T05:23:04.773Z,163.30
2017-12-19T05:24:04.751Z,163.00
2017-12-19T05:25:04.755Z,151.80
2017-12-19T05:26:04.756Z,161.10
2017-12-19T05:27:04.765Z,172.50
2017-12-19T05:28:04.856Z,167.50
2017-12-19T05:29:04.773Z,174.80
2017-12-19T05:30:04.791Z,170.10
2017-12-19T05:31:04.789Z,181.40
2017-12-19T05:32:04.800Z,165.50
2017-12-19T05:33:04.800Z,167.80
2017-12-19T05:34:04.801Z,174.20
2017-12-19T05:35:04.814Z,177.80
2017-12-19T05:36:04.819Z,191.60
2017-12-19T05:37:04.826Z,190.50
2017-12-19T05:38:04.820Z,194.50
2017-12-19T05:39:04.853Z,184.00
2017-12-19T05:40:04.849Z,185.30
2017-12-19T05:41:04.853Z,188.00
2017-12-19T05:42:04.852Z,171.10
2017-12-19T05:43:04.863Z,173.70
2017-12-19T05:44:04.866Z,186.30
2017-12-19T05:45:04.871Z,191.90
2017-12-19T05:46:04.877Z,196.80
2017-12-19T05:47:04.880Z,198.70
2017-12-19T05:48:04.887Z,183.20
2017-12-19T05:49:04.889Z,178.80
2017-12-19T05:50:04.910Z,192.80
2017-12-19T05:51:04.908Z,186.00
2017-12-19T05:52:04.912Z,181.20
2017-12-19T05:53:04.914Z,196.40
2017-12-19T05:54:04.915Z,193.60
2017-12-19T05:55:04.927Z,205.70
2017-12-19T05:56:04.929Z,183.40
2017-12-19T05:57:04.935Z,192.60
2017-12-19T05:58:04.941Z,184.70
2017-12-19T05:59:04.948Z,191.20
2017-12-19T06:00:04.948Z,180.80
2017-12-19T06:01:04.962Z,193.30
2017-12-19T06:02:04.961Z,176.60
2017-12-19T06:03:04.968Z,212.50
2017-12-19T06:04:04.976Z,202.90
2017-12-19T06:05:04.979Z,178.80
2017-12-19T06:06:04.981Z,189.50
2017-12-19T06:07:04.988Z,192.50
2017-12-19T06:08:04.997Z,182.30
2017-12-19T06:09:05.008Z,206.00
2017-12-19T06:10:05.008Z,200.80
2017-12-19T06:11:05.017Z,219.30
2017-12-19T06:12:05.017Z,191.70
2017-12-19T06:13:05.022Z,191.40
2017-12-19T06:14:05.032Z,203.30
2017-12-19T06:15:05.075Z,195.20
2017-12-19T06:16:05.266Z,219.80
2017-12-19T06:17:05.052Z,237.60
2017-12-19T06:18:05.044Z,233.00
2017-12-19T06:19:05.122Z,219.90
2017-12-19T06:20:05.063Z,231.50
2017-12-19T06:21:05.064Z,209.40
2017-12-19T06:22:05.078Z,209.50
2017-12-19T06:23:05.080Z,215.10
2017-12-19T06:24:05.081Z,216.10
2017-12-19T06:25:05.134Z,211.40
2017-12-19T06:26:05.092Z,212.10
2017-12-19T06:27:05.097Z,203.50
2017-12-19T06:28:05.106Z,195.70
2017-12-19T06:29:05.293Z,192.70
2017-12-19T06:30:05.638Z,196.60
2017-12-19T06:31:05.120Z,195.90
2017-12-19T06:32:05.128Z,203.70
2017-12-19T06:33:05.132Z,216.10
2017-12-19T06:34:05.147Z,211.70
2017-12-19T06:35:05.146Z,212.30
2017-12-19T06:36:05.149Z,213.10
2017-12-19T06:37:05.165Z,230.50
2017-12-19T06:38:05.183Z,222.80
2017-12-19T06:39:05.170Z,203.40
2017-12-19T06:40:05.173Z,220.00
2017-12-19T06:41:05.177Z,217.80
2017-12-19T06:42:05.269Z,225.40
2017-12-19T06:43:05.186Z,202.90
2017-12-19T06:44:05.205Z,220.20
2017-12-19T06:45:05.201Z,198.20
2017-12-19T06:46:05.209Z,223.30
2017-12-19T06:47:05.323Z,211.10
2017-12-19T06:48:05.254Z,215.10
2017-12-19T06:49:05.225Z,198.70
2017-12-19T06:50:05.236Z,220.70
2017-12-19T06:51:05.234Z,199.10
2017-12-19T06:52:05.239Z,206.20
2017-12-19T06:53:05.243Z,189.50
2017-12-19T06:54:05.249Z,214.00
2017-12-19T06:55:05.276Z,205.10
2017-12-19T06:56:05.255Z,177.00
2017-12-19T06:57:05.261Z,183.30
2017-12-19T06:58:05.537Z,191.40
2017-12-19T06:59:05.277Z,191.30
2017-12-19T07:00:05.290Z,184.70
2017-12-19T07:01:05.282Z,172.40
2017-12-19T07:02:05.299Z,172.80
2017-12-19T07:03:05.295Z,189.80
2017-12-19T07:04:05.309Z,183.40
2017-12-19T07:05:05.314Z,168.20
2017-12-19T07:06:05.320Z,197.80
2017-12-19T07:07:05.327Z,182.10
2017-12-19T07:08:05.333Z,181.90
2017-12-19T07:09:05.339Z,166.20
2017-12-19T07:10:05.402Z,193.90
2017-12-19T07:11:05.379Z,205.00
2017-12-19T07:12:05.355Z,194.40
2017-12-19T07:13:05.360Z,214.20
2017-12-19T07:14:05.840Z,237.50
2017-12-19T07:15:05.387Z,218.90
2017-12-19T07:16:05.380Z,236.60
2017-12-19T07:17:05.382Z,226.20
2017-12-19T07:18:05.382Z,226.20
2017-12-19T07:19:05.393Z,225.50
2017-12-19T07:20:05.389Z,204.60
2017-12-19T07:21:05.425Z,237.90
2017-12-19T07:22:05.437Z,234.10
2017-12-19T07:23:05.416Z,234.30
2017-12-19T07:24:05.421Z,229.20
2017-12-19T07:25:05.432Z,250.90
2017-12-19T07:26:05.430Z,246.40
2017-12-19T07:27:05.443Z,241.00
2017-12-19T07:28:05.440Z,244.70
2017-12-19T07:29:05.454Z,253.90
2017-12-19T07:30:05.454Z,244.80
2017-12-19T07:31:05.461Z,244.70
2017-12-19T07:32:05.465Z,232.50
2017-12-19T07:33:05.472Z,239.10
2017-12-19T07:34:05.477Z,240.80
2017-12-19T07:35:05.483Z,227.20
2017-12-19T07:36:05.501Z,262.50
2017-12-19T07:37:05.496Z,239.10
2017-12-19T07:38:05.498Z,211.90
2017-12-19T07:39:05.507Z,235.00
2017-12-19T07:40:05.511Z,232.50
2017-12-19T07:41:05.518Z,233.00
2017-12-19T07:42:05.523Z,230.40
2017-12-19T07:43:05.529Z,224.20
2017-12-19T07:44:05.531Z,240.30
2017-12-19T07:45:05.553Z,224.40
2017-12-19T07:46:05.567Z,265.10
2017-12-19T07:47:05.549Z,269.80
2017-12-19T07:48:05.558Z,250.90
2017-12-19T07:49:05.555Z,269.50
2017-12-19T07:50:05.564Z,249.70
2017-12-19T07:51:05.577Z,280.10
2017-12-19T07:52:05.578Z,255.20
2017-12-19T07:53:05.579Z,241.90
2017-12-19T07:54:05.589Z,258.10
2017-12-19T07:55:05.585Z,238.60
2017-12-19T07:56:05.608Z,240.50
2017-12-19T07:57:05.598Z,245.90
2017-12-19T07:58:05.605Z,247.60
2017-12-19T07:59:05.613Z,251.10
2017-12-19T08:00:05.623Z,238.00
2017-12-19T08:01:05.717Z,242.00
2017-12-19T08:02:05.619Z,236.40
2017-12-19T08:03:05.637Z,246.70
2017-12-19T08:04:05.650Z,274.10
2017-12-19T08:05:05.662Z,237.60
2017-12-19T08:06:05.648Z,249.90
2017-12-19T08:07:05.651Z,236.90
2017-12-19T08:08:05.659Z,225.70
2017-12-19T08:09:05.672Z,287.20
2017-12-19T08:10:05.672Z,266.10
2017-12-19T08:11:05.791Z,238.70
2017-12-19T08:12:05.679Z,247.80
2017-12-19T08:13:05.689Z,268.40
2017-12-19T08:14:05.747Z,230.30
2017-12-19T08:15:05.702Z,254.40
2017-12-19T08:16:05.711Z,257.50
2017-12-19T08:17:05.714Z,248.60
2017-12-19T08:18:05.714Z,206.10
2017-12-19T08:19:05.726Z,248.60
2017-12-19T08:20:05.735Z,214.00
2017-12-19T08:21:05.738Z,259.40
2017-12-19T08:22:05.741Z,268.80
2017-12-19T08:23:05.759Z,318.00
2017-12-19T08:24:05.759Z,316.20
2017-12-19T08:25:05.763Z,335.50
2017-12-19T08:26:05.767Z,306.60
2017-12-19T08:27:05.759Z,327.50
2017-12-19T08:28:05.780Z,357.30
2017-12-19T08:29:05.784Z,390.30
2017-12-19T08:30:05.783Z,365.10
2017-12-19T08:31:05.794Z,361.20
2017-12-19T08:32:05.805Z,399.40
2017-12-19T08:33:05.971Z,370.10
2017-12-19T08:34:05.813Z,392.60
2017-12-19T08:35:05.813Z,411.00
2017-12-19T08:36:05.826Z,345.90
2017-12-19T08:37:05.836Z,354.90
2017-12-19T08:38:05.847Z,359.00
2017-12-19T08:39:05.900Z,354.30
2017-12-19T08:40:05.847Z,400.40
2017-12-19T08:41:05.851Z,329.40
2017-12-19T08:42:05.856Z,320.20
2017-12-19T08:43:05.862Z,327.80
2017-12-19T08:44:05.869Z,278.90
2017-12-19T08:45:05.872Z,278.80
2017-12-19T08:46:05.882Z,294.60
2017-12-19T08:47:06.032Z,325.30
2017-12-19T08:48:05.892Z,298.10
2017-12-19T08:49:05.922Z,298.00
2017-12-19T08:50:05.894Z,276.30
2017-12-19T08:51:05.941Z,273.30
2017-12-19T08:52:06.052Z,257.60
2017-12-19T08:53:05.927Z,236.10
2017-12-19T08:54:05.927Z,226.30
2017-12-19T08:55:05.952Z,238.60
2017-12-19T08:56:05.986Z,235.80
2017-12-19T08:57:05.949Z,213.30
2017-12-19T08:58:05.955Z,225.10
2017-12-19T08:59:05.962Z,202.60
2017-12-19T09:00:05.973Z,219.60
2017-12-19T09:01:05.967Z,208.70
2017-12-19T09:02:05.977Z,204.80
2017-12-19T09:03:05.980Z,192.30
2017-12-19T09:04:05.990Z,226.70
2017-12-19T09:05:05.994Z,215.00
2017-12-19T09:06:06.008Z,182.50
2017-12-19T09:07:06.015Z,214.60
2017-12-19T09:08:06.026Z,200.80
2017-12-19T09:09:06.011Z,200.10
2017-12-19T09:11:06.016Z,182.90
2017-12-19T09:12:06.025Z,181.20
2017-12-19T09:13:06.044Z,177.20
2017-12-19T09:14:06.038Z,181.70
2017-12-19T09:16:06.103Z,172.90
2017-12-19T09:17:06.050Z,176.70
2017-12-19T09:18:06.135Z,171.60
2017-12-19T09:19:06.065Z,166.10
2017-12-19T09:20:06.091Z,184.60
2017-12-19T09:21:06.091Z,167.90
2017-12-19T09:22:06.091Z,162.60
2017-12-19T09:23:06.101Z,170.50
2017-12-19T09:24:06.111Z,175.50
2017-12-19T09:26:06.111Z,171.20
2017-12-19T09:27:06.122Z,160.90
2017-12-19T09:28:06.207Z,177.20
2017-12-19T09:29:06.131Z,170.80
2017-12-19T09:30:06.138Z,163.60
2017-12-19T09:31:06.142Z,157.80
2017-12-19T09:32:06.144Z,158.80
2017-12-19T09:33:06.143Z,145.70
2017-12-19T09:34:06.218Z,152.50
2017-12-19T09:35:06.158Z,142.30
2017-12-19T09:36:06.196Z,150.00
2017-12-19T09:37:06.178Z,151.70
2017-12-19T09:38:06.185Z,141.70
2017-12-19T09:39:06.190Z,134.40
2017-12-19T09:40:06.190Z,133.50
2017-12-19T09:41:06.194Z,138.60
2017-12-19T09:42:06.226Z,140.10
2017-12-19T09:43:06.212Z,141.60
2017-12-19T09:44:06.216Z,146.80
2017-12-19T09:45:06.228Z,134.90
2017-12-19T09:46:06.260Z,140.40
2017-12-19T09:47:06.238Z,137.30
2017-12-19T09:48:06.247Z,144.80
2017-12-19T09:49:06.252Z,141.70
2017-12-19T09:50:06.263Z,143.60
2017-12-19T09:51:06.263Z,133.90
2017-12-19T09:52:06.275Z,140.20
2017-12-19T09:53:06.279Z,148.50
2017-12-19T09:54:06.284Z,137.60
2017-12-19T09:55:06.300Z,162.00
2017-12-19T09:56:06.298Z,132.70
2017-12-19T09:57:06.305Z,141.00
2017-12-19T09:58:06.320Z,144.30
2017-12-19T09:59:06.314Z,120.20
2017-12-19T10:00:06.323Z,125.10
2017-12-19T10:01:06.329Z,133.50
2017-12-19T10:02:06.327Z,126.20
2017-12-19T10:03:06.352Z,133.20
2017-12-19T10:04:06.348Z,124.50
2017-12-19T10:05:06.351Z,118.20
2017-12-19T10:06:06.475Z,129.20
2017-12-19T10:07:06.368Z,123.10
2017-12-19T10:08:06.371Z,126.00
2017-12-19T10:09:06.390Z,126.60
2017-12-19T10:10:06.391Z,128.60
2017-12-19T10:11:06.403Z,129.60
2017-12-19T10:12:06.396Z,127.90
2017-12-19T10:13:06.401Z,148.60
2017-12-19T10:14:06.406Z,134.10
2017-12-19T10:15:06.417Z,132.40
2017-12-19T10:16:06.422Z,128.70
2017-12-19T10:17:06.425Z,128.70
2017-12-19T10:18:06.432Z,122.00
2017-12-19T10:19:07.148Z,117.10
2017-12-19T10:20:06.448Z,116.60
2017-12-19T10:21:06.482Z,122.50
2017-12-19T10:23:06.457Z,113.80
2017-12-19T10:24:06.476Z,108.10
2017-12-19T10:25:06.482Z,120.70
2017-12-19T10:26:06.492Z,103.20
2017-12-19T10:27:06.492Z,114.70
2017-12-19T10:28:06.499Z,112.80
2017-12-19T10:29:06.594Z,100.70
2017-12-19T10:30:06.517Z,100.20
2017-12-19T10:31:06.525Z,96.10
2017-12-19T10:32:06.534Z,94.20
2017-12-19T10:33:06.523Z,95.80
2017-12-19T10:35:06.549Z,95.10
2017-12-19T10:36:06.554Z,96.40
2017-12-19T10:37:06.561Z,91.90
2017-12-19T10:38:06.571Z,92.00
2017-12-19T10:39:06.689Z,97.90
2017-12-19T10:40:06.584Z,93.60
2017-12-19T10:41:06.586Z,86.80
2017-12-19T10:42:06.614Z,103.70
2017-12-19T10:43:06.592Z,90.70
2017-12-19T10:44:06.713Z,89.50
2017-12-19T10:45:06.624Z,88.80
2017-12-19T10:46:06.617Z,92.00
2017-12-19T10:47:06.639Z,84.10
2017-12-19T10:48:06.642Z,81.70
2017-12-19T10:49:06.638Z,80.40
2017-12-19T10:50:07.089Z,69.70
2017-12-19T10:51:06.650Z,69.50
2017-12-19T10:52:06.668Z,72.70
2017-12-19T10:53:06.675Z,75.50
2017-12-19T10:54:06.678Z,65.40
2017-12-19T10:55:06.694Z,77.80
2017-12-19T10:56:06.703Z,74.50
2017-12-19T10:57:06.703Z,74.60
2017-12-19T10:58:06.700Z,74.80
2017-12-19T10:59:06.717Z,72.20
2017-12-19T11:00:06.713Z,79.40
2017-12-19T11:01:06.730Z,74.60
2017-12-19T11:02:06.736Z,76.80
2017-12-19T11:03:06.752Z,79.30
2017-12-19T11:04:06.753Z,81.50
2017-12-19T11:05:06.758Z,74.70
2017-12-19T11:06:06.764Z,73.40
2017-12-19T11:07:06.795Z,73.70
2017-12-19T11:08:06.776Z,69.00
2017-12-19T11:09:06.983Z,68.80
2017-12-19T11:10:06.794Z,73.10
2017-12-19T11:11:06.800Z,72.80
2017-12-19T11:12:06.808Z,69.10
2017-12-19T11:13:06.815Z,73.80
2017-12-19T11:14:06.822Z,66.40
2017-12-19T11:15:06.828Z,73.70
2017-12-19T11:16:06.838Z,74.80
2017-12-19T11:17:06.836Z,76.90
2017-12-19T11:18:06.846Z,67.50
2017-12-19T11:19:06.904Z,67.60
2017-12-19T11:20:06.915Z,62.00
2017-12-19T11:21:06.890Z,61.50
2017-12-19T11:22:06.875Z,59.50
2017-12-19T11:23:06.882Z,59.10
2017-12-19T11:24:06.896Z,59.10
2017-12-19T11:25:06.898Z,61.10
2017-12-19T11:26:06.904Z,59.10
2017-12-19T11:27:06.958Z,61.80
2017-12-19T11:28:06.921Z,66.90
2017-12-19T11:29:06.931Z,74.00
2017-12-19T11:30:06.935Z,73.40
2017-12-19T11:31:06.943Z,72.90
2017-12-19T11:32:06.952Z,74.60
2017-12-19T11:33:06.960Z,76.20
2017-12-19T11:34:06.971Z,75.00
2017-12-19T11:35:06.972Z,79.50
2017-12-19T11:36:06.990Z,79.10
2017-12-19T11:37:06.991Z,80.30
2017-12-19T11:38:06.993Z,70.40
2017-12-19T11:39:07.003Z,79.60
2017-12-19T11:40:07.007Z,85.80
2017-12-19T11:41:07.014Z,79.70
2017-12-19T11:42:07.016Z,81.30
2017-12-19T11:43:07.038Z,78.30
2017-12-19T11:44:07.039Z,87.60
2017-12-19T11:45:07.037Z,81.30
2017-12-19T11:46:07.051Z,91.70
2017-12-19T11:47:07.089Z,98.50
2017-12-19T11:48:07.074Z,92.10
2017-12-19T11:49:07.076Z,85.20
2017-12-19T11:50:07.080Z,76.00
2017-12-19T11:51:07.090Z,80.60
2017-12-19T11:52:07.109Z,84.50
2017-12-19T11:53:07.124Z,83.40
2017-12-19T11:54:07.119Z,92.30
2017-12-19T11:55:07.116Z,82.20
2017-12-19T11:56:07.123Z,72.70
2017-12-19T11:57:07.135Z,73.20
2017-12-19T11:58:07.198Z,76.50
2017-12-19T11:59:07.147Z,84.00
2017-12-19T12:00:07.170Z,93.50
2017-12-19T12:01:07.166Z,91.30
2017-12-19T12:02:07.233Z,90.40
2017-12-19T12:03:07.176Z,88.90
2017-12-19T12:04:07.202Z,78.50
2017-12-19T12:05:07.189Z,89.00
2017-12-19T12:06:07.201Z,74.40
2017-12-19T12:07:07.215Z,84.40
2017-12-19T12:08:07.210Z,83.10
2017-12-19T12:09:07.223Z,86.70
2017-12-19T12:10:07.226Z,83.70
2017-12-19T12:11:07.272Z,80.30
2017-12-19T12:12:07.237Z,84.40
2017-12-19T12:13:07.269Z,82.60
2017-12-19T12:14:07.276Z,82.80
2017-12-19T12:15:07.262Z,86.40
2017-12-19T12:16:07.277Z,83.60
2017-12-19T12:17:07.281Z,78.70
2017-12-19T12:18:07.284Z,85.40
2017-12-19T12:19:07.288Z,82.30
2017-12-19T12:20:07.300Z,93.40
2017-12-19T12:21:07.312Z,91.40
2017-12-19T12:22:07.324Z,85.90
2017-12-19T12:23:07.323Z,88.90
2017-12-19T12:24:07.338Z,90.90
2017-12-19T12:25:07.397Z,89.60
2017-12-19T12:26:07.415Z,87.50
2017-12-19T12:27:07.355Z,92.70
2017-12-19T12:28:07.361Z,83.10
2017-12-19T12:29:07.367Z,83.30
2017-12-19T12:30:07.379Z,85.40
2017-12-19T12:31:07.385Z,97.70
2017-12-19T12:32:07.386Z,99.00
2017-12-19T12:33:07.408Z,92.30
2017-12-19T12:34:07.405Z,91.00
2017-12-19T12:35:07.398Z,94.40
2017-12-19T12:36:07.417Z,92.00
2017-12-19T12:37:07.422Z,91.90
2017-12-19T12:38:07.436Z,84.70
2017-12-19T12:39:07.534Z,94.30
2017-12-19T12:40:07.453Z,95.20
2017-12-19T12:41:07.454Z,100.20